sensor_id;sensor_type;location;lat;lon;timestamp;pressure;altitude;pressure_sealevel;temperature;humidity
30967;BME280;17649;51.836;8.330;2022-09-30T00:01:25;100252.63;;;6.34;100.00
30967;BME280;17649;51.836;8.330;2022-09-30T00:04:26;100251.72;;;6.35;100.00
30967;BME280;17649;51.836;8.330;2022-09-30T00:07:28;100256.88;;;6.35;100.00
30967;BME280;17649;51.836;8.330;2022-09-30T00:10:30;100251.88;;;6.32;100.00
30967;BME280;17649;51.836;8.330;2022-09-30T00:13:34;100254.66;;;6.27;100.00
30967;BME280;17649;51.836;8.330;2022-09-30T00:16:40;100261.53;;;6.27;100.00
30967;BME280;17649;51.836;8.330;2022-09-30T00:19:44;100260.16;;;6.18;100.00
30967;BME280;17649;51.836;8.330;2022-09-30T00:22:50;100250.28;;;6.09;100.00
30967;BME280;17649;51.836;8.330;2022-09-30T00:26:05;100256.38;;;6.07;100.00
30967;BME280;17649;51.836;8.330;2022-09-30T00:29:08;100259.78;;;6.07;100.00
30967;BME280;17649;51.836;8.330;2022-09-30T00:32:11;100249.84;;;6.00;100.00
30967;BME280;17649;51.836;8.330;2022-09-30T00:35:12;100265.19;;;6.01;100.00
30967;BME280;17649;51.836;8.330;2022-09-30T00:38:15;100264.34;;;6.01;100.00
30967;BME280;17649;51.836;8.330;2022-09-30T00:41:18;100269.28;;;6.05;100.00
30967;BME280;17649;51.836;8.330;2022-09-30T00:47:56;100272.81;;;6.03;100.00
30967;BME280;17649;51.836;8.330;2022-09-30T00:51:05;100279.06;;;5.97;100.00
30967;BME280;17649;51.836;8.330;2022-09-30T00:54:15;100283.63;;;5.89;100.00
30967;BME280;17649;51.836;8.330;2022-09-30T00:57:20;100280.38;;;5.85;100.00
30967;BME280;17649;51.836;8.330;2022-09-30T01:00:23;100277.19;;;5.79;100.00
30967;BME280;17649;51.836;8.330;2022-09-30T01:03:28;100286.34;;;5.86;100.00
30967;BME280;17649;51.836;8.330;2022-09-30T01:06:34;100278.69;;;5.84;100.00
30967;BME280;17649;51.836;8.330;2022-09-30T01:09:37;100287.22;;;5.85;100.00
30967;BME280;17649;51.836;8.330;2022-09-30T01:12:40;100278.94;;;5.78;100.00
30967;BME280;17649;51.836;8.330;2022-09-30T01:15:58;100284.84;;;5.80;100.00
30967;BME280;17649;51.836;8.330;2022-09-30T01:33:40;100281.69;;;5.74;100.00
30967;BME280;17649;51.836;8.330;2022-09-30T01:46:59;100278.63;;;5.65;100.00
30967;BME280;17649;51.836;8.330;2022-09-30T01:50:25;100289.47;;;5.72;100.00
30967;BME280;17649;51.836;8.330;2022-09-30T01:54:01;100287.53;;;5.77;100.00
30967;BME280;17649;51.836;8.330;2022-09-30T01:57:10;100280.72;;;5.76;100.00
30967;BME280;17649;51.836;8.330;2022-09-30T02:00:14;100285.94;;;5.75;100.00
30967;BME280;17649;51.836;8.330;2022-09-30T02:03:17;100298.41;;;5.84;100.00
30967;BME280;17649;51.836;8.330;2022-09-30T02:06:27;100292.38;;;5.85;100.00
30967;BME280;17649;51.836;8.330;2022-09-30T02:12:46;100301.31;;;5.75;100.00
30967;BME280;17649;51.836;8.330;2022-09-30T02:15:54;100301.47;;;5.72;100.00
30967;BME280;17649;51.836;8.330;2022-09-30T02:25:28;100303.59;;;5.60;100.00
30967;BME280;17649;51.836;8.330;2022-09-30T02:28:37;100310.66;;;5.55;100.00
30967;BME280;17649;51.836;8.330;2022-09-30T02:31:48;100305.75;;;5.49;100.00
30967;BME280;17649;51.836;8.330;2022-09-30T02:35:11;100303.38;;;5.45;100.00
30967;BME280;17649;51.836;8.330;2022-09-30T02:38:22;100306.84;;;5.44;100.00
30967;BME280;17649;51.836;8.330;2022-09-30T02:41:27;100312.81;;;5.44;100.00
30967;BME280;17649;51.836;8.330;2022-09-30T02:44:30;100316.41;;;5.40;100.00
30967;BME280;17649;51.836;8.330;2022-09-30T03:00:37;100315.44;;;5.43;100.00
30967;BME280;17649;51.836;8.330;2022-09-30T03:03:43;100312.88;;;5.43;100.00
30967;BME280;17649;51.836;8.330;2022-09-30T03:06:46;100319.03;;;5.38;100.00
30967;BME280;17649;51.836;8.330;2022-09-30T03:09:47;100321.59;;;5.38;100.00
30967;BME280;17649;51.836;8.330;2022-09-30T03:12:54;100318.25;;;5.36;100.00
30967;BME280;17649;51.836;8.330;2022-09-30T03:22:41;100325.72;;;5.19;100.00
30967;BME280;17649;51.836;8.330;2022-09-30T03:26:03;100330.13;;;5.16;100.00
30967;BME280;17649;51.836;8.330;2022-09-30T03:36:00;100347.88;;;4.98;100.00
30967;BME280;17649;51.836;8.330;2022-09-30T03:39:06;100346.09;;;5.00;100.00
30967;BME280;17649;51.836;8.330;2022-09-30T03:48:36;100341.03;;;4.99;100.00
30967;BME280;17649;51.836;8.330;2022-09-30T03:51:39;100341.84;;;4.99;100.00
30967;BME280;17649;51.836;8.330;2022-09-30T03:54:50;100348.88;;;4.94;100.00
30967;BME280;17649;51.836;8.330;2022-09-30T03:57:52;100344.06;;;4.85;100.00
30967;BME280;17649;51.836;8.330;2022-09-30T04:00:54;100346.94;;;4.77;100.00
30967;BME280;17649;51.836;8.330;2022-09-30T04:03:56;100350.16;;;4.83;100.00
30967;BME280;17649;51.836;8.330;2022-09-30T04:07:00;100357.84;;;4.83;100.00
30967;BME280;17649;51.836;8.330;2022-09-30T04:10:01;100362.91;;;4.84;100.00
30967;BME280;17649;51.836;8.330;2022-09-30T04:13:04;100364.75;;;4.81;100.00
30967;BME280;17649;51.836;8.330;2022-09-30T04:16:06;100367.94;;;4.87;100.00
30967;BME280;17649;51.836;8.330;2022-09-30T04:19:08;100372.16;;;4.88;100.00
30967;BME280;17649;51.836;8.330;2022-09-30T04:22:10;100373.91;;;4.88;100.00
30967;BME280;17649;51.836;8.330;2022-09-30T04:25:12;100370.84;;;4.78;100.00
30967;BME280;17649;51.836;8.330;2022-09-30T04:28:15;100372.75;;;4.71;100.00
30967;BME280;17649;51.836;8.330;2022-09-30T04:31:16;100375.38;;;4.70;100.00
30967;BME280;17649;51.836;8.330;2022-09-30T04:34:18;100377.16;;;4.68;100.00
30967;BME280;17649;51.836;8.330;2022-09-30T04:37:30;100371.25;;;4.66;100.00
30967;BME280;17649;51.836;8.330;2022-09-30T04:40:41;100373.09;;;4.62;100.00
30967;BME280;17649;51.836;8.330;2022-09-30T04:43:43;100388.47;;;4.62;100.00
30967;BME280;17649;51.836;8.330;2022-09-30T04:46:46;100394.28;;;4.67;100.00
30967;BME280;17649;51.836;8.330;2022-09-30T04:49:47;100407.91;;;4.68;100.00
30967;BME280;17649;51.836;8.330;2022-09-30T04:52:49;100418.41;;;4.62;100.00
30967;BME280;17649;51.836;8.330;2022-09-30T04:55:56;100407.53;;;4.54;100.00
30967;BME280;17649;51.836;8.330;2022-09-30T04:58:58;100415.34;;;4.51;100.00
30967;BME280;17649;51.836;8.330;2022-09-30T05:02:00;100417.75;;;4.55;100.00
30967;BME280;17649;51.836;8.330;2022-09-30T05:05:03;100420.00;;;4.64;100.00
30967;BME280;17649;51.836;8.330;2022-09-30T05:08:16;100420.97;;;4.60;100.00
30967;BME280;17649;51.836;8.330;2022-09-30T05:11:22;100419.25;;;4.61;100.00
30967;BME280;17649;51.836;8.330;2022-09-30T05:14:23;100422.69;;;4.61;100.00
30967;BME280;17649;51.836;8.330;2022-09-30T05:17:25;100430.38;;;4.61;100.00
30967;BME280;17649;51.836;8.330;2022-09-30T05:20:26;100432.94;;;4.61;100.00
30967;BME280;17649;51.836;8.330;2022-09-30T05:23:28;100442.25;;;4.64;100.00
30967;BME280;17649;51.836;8.330;2022-09-30T05:26:30;100444.81;;;4.64;100.00
30967;BME280;17649;51.836;8.330;2022-09-30T05:29:40;100447.56;;;4.58;100.00
30967;BME280;17649;51.836;8.330;2022-09-30T05:32:43;100450.22;;;4.55;100.00
30967;BME280;17649;51.836;8.330;2022-09-30T05:35:45;100446.81;;;4.54;100.00
30967;BME280;17649;51.836;8.330;2022-09-30T05:38:51;100451.09;;;4.54;100.00
30967;BME280;17649;51.836;8.330;2022-09-30T05:41:56;100454.34;;;4.59;100.00
30967;BME280;17649;51.836;8.330;2022-09-30T05:44:58;100454.28;;;4.62;100.00
30967;BME280;17649;51.836;8.330;2022-09-30T05:47:59;100455.06;;;4.64;100.00
30967;BME280;17649;51.836;8.330;2022-09-30T05:51:46;100456.66;;;4.66;100.00
30967;BME280;17649;51.836;8.330;2022-09-30T05:54:27;100461.53;;;4.74;100.00
30967;BME280;17649;51.836;8.330;2022-09-30T05:57:31;100462.22;;;4.79;100.00
30967;BME280;17649;51.836;8.330;2022-09-30T06:00:32;100463.75;;;4.85;100.00
30967;BME280;17649;51.836;8.330;2022-09-30T06:03:35;100467.81;;;4.90;100.00
30967;BME280;17649;51.836;8.330;2022-09-30T06:06:37;100471.06;;;4.95;100.00
30967;BME280;17649;51.836;8.330;2022-09-30T06:09:42;100468.34;;;5.00;100.00
30967;BME280;17649;51.836;8.330;2022-09-30T06:12:43;100469.84;;;5.05;100.00
30967;BME280;17649;51.836;8.330;2022-09-30T06:15:53;100475.50;;;5.15;100.00
30967;BME280;17649;51.836;8.330;2022-09-30T06:18:56;100482.94;;;5.23;100.00
30967;BME280;17649;51.836;8.330;2022-09-30T06:21:58;100476.56;;;5.33;100.00
30967;BME280;17649;51.836;8.330;2022-09-30T06:25:02;100486.66;;;5.39;100.00
30967;BME280;17649;51.836;8.330;2022-09-30T06:28:03;100493.91;;;5.51;100.00
30967;BME280;17649;51.836;8.330;2022-09-30T06:31:05;100493.66;;;5.57;100.00
30967;BME280;17649;51.836;8.330;2022-09-30T06:34:07;100498.63;;;5.62;100.00
30967;BME280;17649;51.836;8.330;2022-09-30T06:37:09;100503.66;;;5.65;100.00
30967;BME280;17649;51.836;8.330;2022-09-30T06:40:13;100506.91;;;5.70;100.00
30967;BME280;17649;51.836;8.330;2022-09-30T06:43:15;100509.28;;;5.75;100.00
30967;BME280;17649;51.836;8.330;2022-09-30T06:46:21;100510.84;;;5.79;100.00
30967;BME280;17649;51.836;8.330;2022-09-30T06:49:22;100512.47;;;5.81;100.00
30967;BME280;17649;51.836;8.330;2022-09-30T06:52:24;100513.09;;;5.88;100.00
30967;BME280;17649;51.836;8.330;2022-09-30T06:55:26;100518.97;;;5.91;100.00
30967;BME280;17649;51.836;8.330;2022-09-30T06:58:27;100513.75;;;5.93;100.00
30967;BME280;17649;51.836;8.330;2022-09-30T07:01:29;100507.47;;;6.02;100.00
30967;BME280;17649;51.836;8.330;2022-09-30T07:04:31;100513.88;;;6.13;100.00
30967;BME280;17649;51.836;8.330;2022-09-30T07:07:33;100517.50;;;6.30;100.00
30967;BME280;17649;51.836;8.330;2022-09-30T07:10:36;100508.59;;;6.38;100.00
30967;BME280;17649;51.836;8.330;2022-09-30T07:13:45;100517.69;;;6.47;100.00
30967;BME280;17649;51.836;8.330;2022-09-30T07:16:47;100521.75;;;6.52;100.00
30967;BME280;17649;51.836;8.330;2022-09-30T07:19:48;100525.50;;;6.66;100.00
30967;BME280;17649;51.836;8.330;2022-09-30T07:22:51;100521.59;;;6.77;100.00
30967;BME280;17649;51.836;8.330;2022-09-30T07:25:58;100529.88;;;6.84;100.00
30967;BME280;17649;51.836;8.330;2022-09-30T07:29:01;100527.28;;;6.85;100.00
30967;BME280;17649;51.836;8.330;2022-09-30T07:32:03;100527.22;;;7.07;100.00
30967;BME280;17649;51.836;8.330;2022-09-30T07:35:04;100538.72;;;7.19;100.00
30967;BME280;17649;51.836;8.330;2022-09-30T07:38:06;100542.38;;;7.34;100.00
30967;BME280;17649;51.836;8.330;2022-09-30T07:41:12;100549.53;;;7.47;100.00
30967;BME280;17649;51.836;8.330;2022-09-30T07:44:15;100546.59;;;7.55;100.00
30967;BME280;17649;51.836;8.330;2022-09-30T07:47:18;100545.44;;;7.62;100.00
30967;BME280;17649;51.836;8.330;2022-09-30T07:50:20;100548.31;;;7.75;100.00
30967;BME280;17649;51.836;8.330;2022-09-30T07:53:21;100547.69;;;7.89;100.00
30967;BME280;17649;51.836;8.330;2022-09-30T07:56:23;100548.03;;;8.00;100.00
30967;BME280;17649;51.836;8.330;2022-09-30T07:59:26;100556.13;;;8.11;100.00
30967;BME280;17649;51.836;8.330;2022-09-30T08:02:28;100558.22;;;8.22;100.00
30967;BME280;17649;51.836;8.330;2022-09-30T08:05:30;100566.16;;;8.36;100.00
30967;BME280;17649;51.836;8.330;2022-09-30T08:08:33;100562.53;;;8.40;100.00
30967;BME280;17649;51.836;8.330;2022-09-30T08:11:35;100557.66;;;8.53;100.00
30967;BME280;17649;51.836;8.330;2022-09-30T08:14:37;100562.22;;;8.65;100.00
30967;BME280;17649;51.836;8.330;2022-09-30T08:17:38;100562.59;;;8.75;100.00
30967;BME280;17649;51.836;8.330;2022-09-30T08:20:40;100561.09;;;8.88;100.00
30967;BME280;17649;51.836;8.330;2022-09-30T08:23:44;100558.06;;;8.97;100.00
30967;BME280;17649;51.836;8.330;2022-09-30T08:26:45;100560.97;;;9.08;100.00
30967;BME280;17649;51.836;8.330;2022-09-30T08:29:47;100565.50;;;9.20;100.00
30967;BME280;17649;51.836;8.330;2022-09-30T08:32:49;100554.78;;;9.28;100.00
30967;BME280;17649;51.836;8.330;2022-09-30T08:35:51;100560.25;;;9.39;100.00
30967;BME280;17649;51.836;8.330;2022-09-30T08:38:53;100562.13;;;9.53;100.00
30967;BME280;17649;51.836;8.330;2022-09-30T08:42:02;100552.88;;;9.65;100.00
30967;BME280;17649;51.836;8.330;2022-09-30T08:45:55;100551.16;;;9.81;100.00
30967;BME280;17649;51.836;8.330;2022-09-30T08:51:39;100556.53;;;10.09;100.00
30967;BME280;17649;51.836;8.330;2022-09-30T08:54:43;100561.13;;;10.20;100.00
30967;BME280;17649;51.836;8.330;2022-09-30T08:57:49;100547.56;;;10.32;100.00
30967;BME280;17649;51.836;8.330;2022-09-30T09:00:54;100547.91;;;10.42;100.00
30967;BME280;17649;51.836;8.330;2022-09-30T09:03:58;100548.53;;;10.61;100.00
30967;BME280;17649;51.836;8.330;2022-09-30T09:07:04;100544.25;;;10.76;100.00
30967;BME280;17649;51.836;8.330;2022-09-30T09:16:43;100534.16;;;11.16;100.00
30967;BME280;17649;51.836;8.330;2022-09-30T09:23:09;100524.88;;;11.56;100.00
30967;BME280;17649;51.836;8.330;2022-09-30T09:26:14;100519.69;;;11.70;100.00
30967;BME280;17649;51.836;8.330;2022-09-30T09:29:37;100519.31;;;11.76;100.00
30967;BME280;17649;51.836;8.330;2022-09-30T09:32:41;100521.47;;;11.84;100.00
30967;BME280;17649;51.836;8.330;2022-09-30T09:45:15;100509.19;;;12.41;100.00
30967;BME280;17649;51.836;8.330;2022-09-30T09:48:22;100510.06;;;12.54;100.00
30967;BME280;17649;51.836;8.330;2022-09-30T09:51:27;100507.06;;;12.73;100.00
30967;BME280;17649;51.836;8.330;2022-09-30T09:54:30;100503.91;;;13.08;100.00
30967;BME280;17649;51.836;8.330;2022-09-30T09:57:34;100503.09;;;13.20;100.00
30967;BME280;17649;51.836;8.330;2022-09-30T10:00:39;100505.09;;;13.29;100.00
30967;BME280;17649;51.836;8.330;2022-09-30T10:03:47;100498.00;;;13.44;100.00
30967;BME280;17649;51.836;8.330;2022-09-30T10:07:13;100490.94;;;13.46;100.00
30967;BME280;17649;51.836;8.330;2022-09-30T10:10:16;100494.34;;;13.59;100.00
30967;BME280;17649;51.836;8.330;2022-09-30T10:13:19;100499.56;;;13.59;100.00
30967;BME280;17649;51.836;8.330;2022-09-30T10:16:31;100486.22;;;13.77;100.00
30967;BME280;17649;51.836;8.330;2022-09-30T10:19:37;100489.28;;;13.94;100.00
30967;BME280;17649;51.836;8.330;2022-09-30T10:22:41;100480.81;;;14.03;100.00
30967;BME280;17649;51.836;8.330;2022-09-30T10:25:59;100491.91;;;14.18;100.00
30967;BME280;17649;51.836;8.330;2022-09-30T10:29:20;100490.97;;;14.19;100.00
30967;BME280;17649;51.836;8.330;2022-09-30T10:32:24;100483.63;;;14.24;100.00
30967;BME280;17649;51.836;8.330;2022-09-30T10:35:26;100492.00;;;14.65;100.00
30967;BME280;17649;51.836;8.330;2022-09-30T10:38:27;100485.63;;;14.69;100.00
30967;BME280;17649;51.836;8.330;2022-09-30T10:41:30;100488.94;;;14.71;100.00
30967;BME280;17649;51.836;8.330;2022-09-30T10:44:40;100486.88;;;14.98;100.00
30967;BME280;17649;51.836;8.330;2022-09-30T10:47:52;100488.47;;;15.23;100.00
30967;BME280;17649;51.836;8.330;2022-09-30T10:50:54;100486.34;;;15.50;100.00
30967;BME280;17649;51.836;8.330;2022-09-30T10:54:01;100479.94;;;15.43;100.00
30967;BME280;17649;51.836;8.330;2022-09-30T10:57:03;100473.31;;;15.62;100.00
30967;BME280;17649;51.836;8.330;2022-09-30T11:00:14;100464.13;;;15.90;100.00
30967;BME280;17649;51.836;8.330;2022-09-30T11:03:19;100461.53;;;15.90;100.00
30967;BME280;17649;51.836;8.330;2022-09-30T11:06:27;100458.25;;;16.52;100.00
30967;BME280;17649;51.836;8.330;2022-09-30T11:09:45;100454.25;;;17.50;100.00
30967;BME280;17649;51.836;8.330;2022-09-30T11:13:09;100457.28;;;17.55;100.00
30967;BME280;17649;51.836;8.330;2022-09-30T11:16:18;100450.94;;;17.88;100.00
30967;BME280;17649;51.836;8.330;2022-09-30T11:19:29;100457.41;;;17.14;100.00
30967;BME280;17649;51.836;8.330;2022-09-30T11:38:11;100441.88;;;19.44;100.00
30967;BME280;17649;51.836;8.330;2022-09-30T11:41:21;100450.03;;;19.14;100.00
30967;BME280;17649;51.836;8.330;2022-09-30T11:44:34;100446.31;;;19.44;100.00
30967;BME280;17649;51.836;8.330;2022-09-30T11:47:44;100450.97;;;19.22;100.00
30967;BME280;17649;51.836;8.330;2022-09-30T11:57:04;100439.25;;;18.12;100.00
30967;BME280;17649;51.836;8.330;2022-09-30T12:03:10;100441.03;;;18.40;100.00
30967;BME280;17649;51.836;8.330;2022-09-30T12:09:25;100446.31;;;19.44;100.00
30967;BME280;17649;51.836;8.330;2022-09-30T12:12:28;100440.53;;;20.13;100.00
30967;BME280;17649;51.836;8.330;2022-09-30T12:15:31;100445.03;;;20.03;100.00
30967;BME280;17649;51.836;8.330;2022-09-30T12:18:35;100448.91;;;20.70;100.00
30967;BME280;17649;51.836;8.330;2022-09-30T12:21:43;100448.34;;;20.84;96.92
30967;BME280;17649;51.836;8.330;2022-09-30T12:24:46;100435.34;;;20.39;96.54
30967;BME280;17649;51.836;8.330;2022-09-30T12:31:02;100430.84;;;18.28;100.00
30967;BME280;17649;51.836;8.330;2022-09-30T12:44:04;100426.16;;;17.52;100.00
30967;BME280;17649;51.836;8.330;2022-09-30T12:47:14;100420.50;;;18.07;100.00
30967;BME280;17649;51.836;8.330;2022-09-30T12:50:20;100422.34;;;19.29;100.00
30967;BME280;17649;51.836;8.330;2022-09-30T12:53:26;100419.28;;;20.86;79.92
30967;BME280;17649;51.836;8.330;2022-09-30T12:56:31;100421.78;;;21.71;82.90
30967;BME280;17649;51.836;8.330;2022-09-30T12:59:33;100405.19;;;23.32;67.72
30967;BME280;17649;51.836;8.330;2022-09-30T13:02:36;100400.97;;;22.27;59.62
30967;BME280;17649;51.836;8.330;2022-09-30T13:08:43;100405.91;;;20.79;72.26
30967;BME280;17649;51.836;8.330;2022-09-30T13:21:22;100387.88;;;21.85;73.02
30967;BME280;17649;51.836;8.330;2022-09-30T13:24:38;100384.69;;;20.72;77.87
30967;BME280;17649;51.836;8.330;2022-09-30T13:27:50;100380.44;;;21.13;85.84
30967;BME280;17649;51.836;8.330;2022-09-30T13:31:15;100375.34;;;22.84;68.15
30967;BME280;17649;51.836;8.330;2022-09-30T13:37:31;100376.19;;;22.77;70.82
30967;BME280;17649;51.836;8.330;2022-09-30T13:40:32;100374.47;;;23.08;61.35
30967;BME280;17649;51.836;8.330;2022-09-30T13:43:39;100379.81;;;22.68;64.66
30967;BME280;17649;51.836;8.330;2022-09-30T13:46:52;100372.78;;;22.52;59.66
30967;BME280;17649;51.836;8.330;2022-09-30T13:53:00;100363.16;;;22.83;74.35
30967;BME280;17649;51.836;8.330;2022-09-30T13:56:11;100347.13;;;23.86;65.47
30967;BME280;17649;51.836;8.330;2022-09-30T14:05:56;100350.50;;;21.65;78.30
30967;BME280;17649;51.836;8.330;2022-09-30T14:22:13;100344.53;;;24.01;52.01
30967;BME280;17649;51.836;8.330;2022-09-30T14:25:16;100339.34;;;22.28;55.25
30967;BME280;17649;51.836;8.330;2022-09-30T14:28:21;100337.03;;;22.41;61.81
30967;BME280;17649;51.836;8.330;2022-09-30T14:31:27;100335.72;;;23.63;56.00
30967;BME280;17649;51.836;8.330;2022-09-30T14:34:38;100338.56;;;22.19;58.11
30967;BME280;17649;51.836;8.330;2022-09-30T14:37:44;100338.22;;;22.22;65.61
30967;BME280;17649;51.836;8.330;2022-09-30T14:40:50;100339.13;;;21.06;73.31
30967;BME280;17649;51.836;8.330;2022-09-30T14:43:53;100347.03;;;19.21;90.65
30967;BME280;17649;51.836;8.330;2022-09-30T14:46:56;100352.78;;;18.60;100.00
30967;BME280;17649;51.836;8.330;2022-09-30T14:50:00;100342.09;;;18.15;100.00
30967;BME280;17649;51.836;8.330;2022-09-30T14:53:03;100340.56;;;17.64;100.00
30967;BME280;17649;51.836;8.330;2022-09-30T14:56:17;100339.28;;;17.49;100.00
30967;BME280;17649;51.836;8.330;2022-09-30T14:59:24;100332.41;;;17.48;100.00
30967;BME280;17649;51.836;8.330;2022-09-30T15:02:27;100331.59;;;17.57;100.00
30967;BME280;17649;51.836;8.330;2022-09-30T15:05:30;100330.59;;;17.39;100.00
30967;BME280;17649;51.836;8.330;2022-09-30T15:08:41;100324.09;;;17.23;100.00
30967;BME280;17649;51.836;8.330;2022-09-30T15:11:43;100327.66;;;17.13;100.00
30967;BME280;17649;51.836;8.330;2022-09-30T15:14:54;100326.56;;;17.15;100.00
30967;BME280;17649;51.836;8.330;2022-09-30T15:17:57;100326.63;;;16.94;100.00
30967;BME280;17649;51.836;8.330;2022-09-30T15:20:59;100331.47;;;17.09;100.00
30967;BME280;17649;51.836;8.330;2022-09-30T15:24:01;100319.50;;;17.06;100.00
30967;BME280;17649;51.836;8.330;2022-09-30T15:27:03;100314.00;;;16.99;100.00
30967;BME280;17649;51.836;8.330;2022-09-30T15:30:20;100316.34;;;17.03;100.00
30967;BME280;17649;51.836;8.330;2022-09-30T15:33:23;100304.25;;;17.02;100.00
30967;BME280;17649;51.836;8.330;2022-09-30T15:36:34;100310.06;;;16.75;100.00
30967;BME280;17649;51.836;8.330;2022-09-30T15:39:40;100308.88;;;16.88;100.00
30967;BME280;17649;51.836;8.330;2022-09-30T15:43:05;100308.22;;;16.45;100.00
30967;BME280;17649;51.836;8.330;2022-09-30T15:46:23;100313.13;;;16.59;100.00
30967;BME280;17649;51.836;8.330;2022-09-30T15:49:29;100309.50;;;16.71;100.00
30967;BME280;17649;51.836;8.330;2022-09-30T15:59:18;100321.69;;;16.40;100.00
30967;BME280;17649;51.836;8.330;2022-09-30T16:02:21;100324.50;;;16.27;100.00
30967;BME280;17649;51.836;8.330;2022-09-30T16:05:24;100318.19;;;16.09;100.00
30967;BME280;17649;51.836;8.330;2022-09-30T16:08:25;100322.72;;;16.07;100.00
30967;BME280;17649;51.836;8.330;2022-09-30T16:17:48;100335.94;;;15.94;100.00
30967;BME280;17649;51.836;8.330;2022-09-30T16:21:00;100332.41;;;15.84;100.00
30967;BME280;17649;51.836;8.330;2022-09-30T16:24:03;100341.09;;;15.73;100.00
30967;BME280;17649;51.836;8.330;2022-09-30T16:27:21;100342.09;;;15.61;100.00
30967;BME280;17649;51.836;8.330;2022-09-30T16:30:23;100331.69;;;15.50;100.00
30967;BME280;17649;51.836;8.330;2022-09-30T16:33:26;100338.69;;;15.38;100.00
30967;BME280;17649;51.836;8.330;2022-09-30T16:36:27;100337.28;;;15.34;100.00
30967;BME280;17649;51.836;8.330;2022-09-30T16:39:28;100332.09;;;15.23;100.00
30967;BME280;17649;51.836;8.330;2022-09-30T16:42:30;100332.78;;;15.14;100.00
30967;BME280;17649;51.836;8.330;2022-09-30T16:45:32;100342.31;;;15.04;100.00
30967;BME280;17649;51.836;8.330;2022-09-30T16:48:34;100339.31;;;14.86;100.00
30967;BME280;17649;51.836;8.330;2022-09-30T16:51:35;100344.53;;;14.64;100.00
30967;BME280;17649;51.836;8.330;2022-09-30T16:54:36;100352.63;;;14.37;100.00
30967;BME280;17649;51.836;8.330;2022-09-30T16:57:40;100347.72;;;14.21;100.00
30967;BME280;17649;51.836;8.330;2022-09-30T17:00:42;100352.41;;;14.05;100.00
30967;BME280;17649;51.836;8.330;2022-09-30T17:03:47;100362.16;;;13.90;100.00
30967;BME280;17649;51.836;8.330;2022-09-30T17:06:49;100357.47;;;13.71;100.00
30967;BME280;17649;51.836;8.330;2022-09-30T17:09:50;100360.44;;;13.54;100.00
30967;BME280;17649;51.836;8.330;2022-09-30T17:12:52;100357.47;;;13.34;100.00
30967;BME280;17649;51.836;8.330;2022-09-30T17:15:54;100363.34;;;13.12;100.00
30967;BME280;17649;51.836;8.330;2022-09-30T17:18:56;100370.81;;;12.92;100.00
30967;BME280;17649;51.836;8.330;2022-09-30T17:21:58;100365.94;;;12.74;100.00
30967;BME280;17649;51.836;8.330;2022-09-30T17:25:00;100375.94;;;12.55;100.00
30967;BME280;17649;51.836;8.330;2022-09-30T17:28:04;100380.38;;;12.40;100.00
30967;BME280;17649;51.836;8.330;2022-09-30T17:31:06;100370.59;;;12.31;100.00
30967;BME280;17649;51.836;8.330;2022-09-30T17:34:08;100378.59;;;12.28;100.00
30967;BME280;17649;51.836;8.330;2022-09-30T17:37:13;100384.28;;;12.20;100.00
30967;BME280;17649;51.836;8.330;2022-09-30T17:40:23;100381.13;;;12.15;100.00
30967;BME280;17649;51.836;8.330;2022-09-30T17:43:52;100381.56;;;12.09;100.00
30967;BME280;17649;51.836;8.330;2022-09-30T17:46:57;100387.13;;;12.03;100.00
30967;BME280;17649;51.836;8.330;2022-09-30T17:50:01;100386.81;;;11.95;100.00
30967;BME280;17649;51.836;8.330;2022-09-30T17:53:02;100382.75;;;11.91;100.00
30967;BME280;17649;51.836;8.330;2022-09-30T17:56:05;100386.44;;;11.87;100.00
30967;BME280;17649;51.836;8.330;2022-09-30T17:59:15;100384.25;;;11.81;100.00
30967;BME280;17649;51.836;8.330;2022-09-30T18:02:19;100386.34;;;11.74;100.00
30967;BME280;17649;51.836;8.330;2022-09-30T18:05:22;100388.53;;;11.68;100.00
30967;BME280;17649;51.836;8.330;2022-09-30T18:08:26;100388.72;;;11.64;100.00
30967;BME280;17649;51.836;8.330;2022-09-30T18:11:32;100378.81;;;11.57;100.00
30967;BME280;17649;51.836;8.330;2022-09-30T18:14:39;100380.25;;;11.48;100.00
30967;BME280;17649;51.836;8.330;2022-09-30T18:17:43;100375.63;;;11.39;100.00
30967;BME280;17649;51.836;8.330;2022-09-30T18:20:48;100381.00;;;11.36;100.00
30967;BME280;17649;51.836;8.330;2022-09-30T18:23:54;100379.69;;;11.29;100.00
30967;BME280;17649;51.836;8.330;2022-09-30T18:26:59;100380.19;;;11.21;100.00
30967;BME280;17649;51.836;8.330;2022-09-30T18:30:03;100375.31;;;11.17;100.00
30967;BME280;17649;51.836;8.330;2022-09-30T18:33:06;100368.38;;;11.17;100.00
30967;BME280;17649;51.836;8.330;2022-09-30T18:36:11;100377.69;;;11.20;100.00
30967;BME280;17649;51.836;8.330;2022-09-30T18:39:14;100376.47;;;11.25;100.00
30967;BME280;17649;51.836;8.330;2022-09-30T18:42:16;100374.25;;;11.33;100.00
30967;BME280;17649;51.836;8.330;2022-09-30T18:45:19;100381.53;;;11.41;100.00
30967;BME280;17649;51.836;8.330;2022-09-30T18:48:23;100372.06;;;11.54;100.00
30967;BME280;17649;51.836;8.330;2022-09-30T18:51:27;100371.41;;;11.65;100.00
30967;BME280;17649;51.836;8.330;2022-09-30T18:54:33;100364.78;;;11.74;100.00
30967;BME280;17649;51.836;8.330;2022-09-30T18:57:57;100360.00;;;11.82;100.00
30967;BME280;17649;51.836;8.330;2022-09-30T19:01:00;100354.41;;;11.88;100.00
30967;BME280;17649;51.836;8.330;2022-09-30T19:04:05;100354.13;;;11.92;100.00
30967;BME280;17649;51.836;8.330;2022-09-30T19:07:08;100352.47;;;11.91;100.00
30967;BME280;17649;51.836;8.330;2022-09-30T19:10:19;100362.84;;;11.91;100.00